^^
Station Historical Data
Daily Summary for August 7, 2017 Units:  Both    English   Metric
« Previous Day
Next Day »
Daily Weekly Monthly Yearly Custom
  High: Low: Average:
Temperature: 77.0 °F /  25 °C 44.8 °F /  7.1 °C 60 °F /  15.6 °C
Dew Point: 24.8 °F /  -4 °C 14.5 °F /  -9.7 °C 19.3 °F /  -7.1 °C
Humidity: 38% 10% 22%
Wind Speed: 6.9mph /  11.1km/h - 0.6mph /  1km/h
Wind Gust: 10.0mph /  16.1km/h - -
Wind- - SSW
Pressure: 30.39 in /  1029 hPa 30.25 in /  1024.3 hPa -
Precipitation: 0.00 in /  0 mm    
Historical Graphs
 
 
Tabular Data for August 7, 2017
Time Temperature Dew Point Pressure Wind Wind Speed Wind Gust Humidity Rainfall Rate (Hourly) solar Conditions
00:03 50.4 °F /  10.2 °C 17.6 °F /  -8 °C 30.35in /  1027.7hPa Calm     27% 0.00in /  0mm 0.0 W/m2
00:09 50.2 °F /  10.1 °C 18.3 °F /  -7.6 °C 30.35in /  1027.7hPa Calm     28% 0.00in /  0mm 0.0 W/m2
00:15 50.0 °F /  10 °C 18.1 °F /  -7.7 °C 30.35in /  1027.7hPa Calm     28% 0.00in /  0mm 0.0 W/m2
00:21 50.2 °F /  10.1 °C 18.3 °F /  -7.6 °C 30.35in /  1027.7hPa Calm     28% 0.00in /  0mm 0.0 W/m2
00:27 50.0 °F /  10 °C 18.1 °F /  -7.7 °C 30.35in /  1027.7hPa Calm     28% 0.00in /  0mm 0.0 W/m2
00:33 50.2 °F /  10.1 °C 18.3 °F /  -7.6 °C 30.34in /  1027.3hPa Calm   1.0mph /  1.6km/h 28% 0.00in /  0mm 0.0 W/m2
00:39 50.4 °F /  10.2 °C 17.6 °F /  -8 °C 30.34in /  1027.3hPa Calm   4.0mph /  6.4km/h 27% 0.00in /  0mm 0.0 W/m2
00:46 50.7 °F /  10.4 °C 18.0 °F /  -7.8 °C 30.34in /  1027.3hPa Calm   6.0mph /  9.7km/h 27% 0.00in /  0mm 0.0 W/m2
00:52 51.1 °F /  10.6 °C 18.3 °F /  -7.6 °C 30.34in /  1027.3hPa NE 0.9mph /  1.4km/h 5.0mph /  8km/h 27% 0.00in /  0mm 0.0 W/m2
01:04 51.3 °F /  10.7 °C 18.3 °F /  -7.6 °C 30.34in /  1027.3hPa Calm   3.0mph /  4.8km/h 27% 0.00in /  0mm 0.0 W/m2
01:10 51.3 °F /  10.7 °C 18.3 °F /  -7.6 °C 30.34in /  1027.3hPa Calm   4.0mph /  6.4km/h 27% 0.00in /  0mm 0.0 W/m2
01:16 51.1 °F /  10.6 °C 18.3 °F /  -7.6 °C 30.34in /  1027.3hPa Calm   5.0mph /  8km/h 27% 0.00in /  0mm 0.0 W/m2
01:23 50.9 °F /  10.5 °C 18.1 °F /  -7.7 °C 30.34in /  1027.3hPa Calm   5.0mph /  8km/h 27% 0.00in /  0mm 0.0 W/m2
01:29 50.7 °F /  10.4 °C 18.0 °F /  -7.8 °C 30.33in /  1027hPa ENE 2.0mph /  3.2km/h 2.0mph /  3.2km/h 27% 0.00in /  0mm 0.0 W/m2
01:35 50.5 °F /  10.3 °C 17.8 °F /  -7.9 °C 30.33in /  1027hPa ENE 0.9mph /  1.4km/h 1.0mph /  1.6km/h 27% 0.00in /  0mm 0.0 W/m2
01:41 50.4 °F /  10.2 °C 17.6 °F /  -8 °C 30.33in /  1027hPa Calm   1.0mph /  1.6km/h 27% 0.00in /  0mm 0.0 W/m2
01:47 50.2 °F /  10.1 °C 18.3 °F /  -7.6 °C 30.33in /  1027hPa Calm     28% 0.00in /  0mm 0.0 W/m2
01:53 49.8 °F /  9.9 °C 18.0 °F /  -7.8 °C 30.33in /  1027hPa Calm   2.0mph /  3.2km/h 28% 0.00in /  0mm 0.0 W/m2
01:59 49.8 °F /  9.9 °C 18.0 °F /  -7.8 °C 30.33in /  1027hPa Calm   1.0mph /  1.6km/h 28% 0.00in /  0mm 0.0 W/m2
02:05 49.6 °F /  9.8 °C 17.8 °F /  -7.9 °C 30.33in /  1027hPa Calm     28% 0.00in /  0mm 0.0 W/m2
02:12 49.5 °F /  9.7 °C 17.8 °F /  -7.9 °C 30.33in /  1027hPa Calm   1.0mph /  1.6km/h 28% 0.00in /  0mm 0.0 W/m2
02:18 49.5 °F /  9.7 °C 17.8 °F /  -7.9 °C 30.33in /  1027hPa Calm   2.0mph /  3.2km/h 28% 0.00in /  0mm 0.0 W/m2
02:24 49.6 °F /  9.8 °C 17.8 °F /  -7.9 °C 30.33in /  1027hPa Calm     28% 0.00in /  0mm 0.0 W/m2
02:30 49.6 °F /  9.8 °C 18.7 °F /  -7.4 °C 30.33in /  1027hPa Calm     29% 0.00in /  0mm 0.0 W/m2
02:36 49.5 °F /  9.7 °C 18.5 °F /  -7.5 °C 30.33in /  1027hPa Calm     29% 0.00in /  0mm 0.0 W/m2
02:42 49.1 °F /  9.5 °C 19.0 °F /  -7.2 °C 30.33in /  1027hPa Calm     30% 0.00in /  0mm 0.0 W/m2
02:48 48.7 °F /  9.3 °C 19.4 °F /  -7 °C 30.33in /  1027hPa Calm     31% 0.00in /  0mm 0.0 W/m2
02:54 48.4 °F /  9.1 °C 19.0 °F /  -7.2 °C 30.32in /  1026.6hPa Calm     31% 0.00in /  0mm 0.0 W/m2
03:01 47.8 °F /  8.8 °C 18.7 °F /  -7.4 °C 30.32in /  1026.6hPa Calm     31% 0.00in /  0mm 0.0 W/m2
03:07 47.5 °F /  8.6 °C 19.0 °F /  -7.2 °C 30.32in /  1026.6hPa Calm     32% 0.00in /  0mm 0.0 W/m2
03:13 47.1 °F /  8.4 °C 19.4 °F /  -7 °C 30.32in /  1026.6hPa Calm     33% 0.00in /  0mm 0.0 W/m2
03:19 46.8 °F /  8.2 °C 19.2 °F /  -7.1 °C 30.32in /  1026.6hPa Calm     33% 0.00in /  0mm 0.0 W/m2
03:25 46.8 °F /  8.2 °C 19.2 °F /  -7.1 °C 30.32in /  1026.6hPa Calm   4.0mph /  6.4km/h 33% 0.00in /  0mm 0.0 W/m2
03:31 47.1 °F /  8.4 °C 18.7 °F /  -7.4 °C 30.32in /  1026.6hPa Calm     32% 0.00in /  0mm 0.0 W/m2
03:38 47.3 °F /  8.5 °C 19.6 °F /  -6.9 °C 30.32in /  1026.6hPa Calm     33% 0.00in /  0mm 0.0 W/m2
03:44 47.3 °F /  8.5 °C 18.9 °F /  -7.3 °C 30.32in /  1026.6hPa Calm     32% 0.00in /  0mm 0.0 W/m2
03:50 47.3 °F /  8.5 °C 19.6 °F /  -6.9 °C 30.32in /  1026.6hPa Calm     33% 0.00in /  0mm 0.0 W/m2
03:56 47.1 °F /  8.4 °C 20.1 °F /  -6.6 °C 30.32in /  1026.6hPa Calm     34% 0.00in /  0mm 0.0 W/m2
04:02 47.1 °F /  8.4 °C 19.4 °F /  -7 °C 30.32in /  1026.6hPa Calm     33% 0.00in /  0mm 0.0 W/m2
04:08 46.9 °F /  8.3 °C 19.4 °F /  -7 °C 30.33in /  1027hPa Calm     33% 0.00in /  0mm 0.0 W/m2
04:16 46.9 °F /  8.3 °C 19.4 °F /  -7 °C 30.33in /  1027hPa Calm     33% 0.00in /  0mm 0.0 W/m2
04:22 46.9 °F /  8.3 °C 19.4 °F /  -7 °C 30.33in /  1027hPa Calm     33% 0.00in /  0mm 0.0 W/m2
04:29 47.5 °F /  8.6 °C 19.8 °F /  -6.8 °C 30.33in /  1027hPa ENE 0.9mph /  1.4km/h 2.0mph /  3.2km/h 33% 0.00in /  0mm 0.0 W/m2
04:35 47.7 °F /  8.7 °C 19.9 °F /  -6.7 °C 30.33in /  1027hPa Calm   2.0mph /  3.2km/h 33% 0.00in /  0mm 0.0 W/m2
04:41 47.7 °F /  8.7 °C 19.9 °F /  -6.7 °C 30.34in /  1027.3hPa Calm   1.0mph /  1.6km/h 33% 0.00in /  0mm 0.0 W/m2
04:47 47.7 °F /  8.7 °C 19.9 °F /  -6.7 °C 30.34in /  1027.3hPa Calm     33% 0.00in /  0mm 0.0 W/m2
04:53 47.5 °F /  8.6 °C 19.8 °F /  -6.8 °C 30.34in /  1027.3hPa Calm     33% 0.00in /  0mm 0.0 W/m2
04:59 47.3 °F /  8.5 °C 20.3 °F /  -6.5 °C 30.34in /  1027.3hPa Calm     34% 0.00in /  0mm 0.0 W/m2
05:05 46.9 °F /  8.3 °C 19.9 °F /  -6.7 °C 30.34in /  1027.3hPa Calm     34% 0.00in /  0mm 0.0 W/m2
05:09 46.8 °F /  8.2 °C 20.5 °F /  -6.4 °C 30.34in /  1027.3hPa Calm     35% 0.00in /  0mm 0.0 W/m2
05:16 46.4 °F /  8 °C 20.3 °F /  -6.5 °C 30.34in /  1027.3hPa Calm     35% 0.00in /  0mm 0.0 W/m2
05:22 46.0 °F /  7.8 °C 20.5 °F /  -6.4 °C 30.34in /  1027.3hPa Calm     36% 0.00in /  0mm 0.0 W/m2
05:28 45.7 °F /  7.6 °C 21.6 °F /  -5.8 °C 30.34in /  1027.3hPa Calm     38% 0.00in /  0mm 0.0 W/m2
05:34 45.3 °F /  7.4 °C 20.7 °F /  -6.3 °C 30.34in /  1027.3hPa Calm   1.0mph /  1.6km/h 37% 0.00in /  0mm 0.0 W/m2
05:40 45.3 °F /  7.4 °C 20.7 °F /  -6.3 °C 30.34in /  1027.3hPa Calm     37% 0.00in /  0mm 0.0 W/m2
05:46 45.3 °F /  7.4 °C 19.9 °F /  -6.7 °C 30.35in /  1027.7hPa Calm     36% 0.00in /  0mm 0.0 W/m2
05:52 45.7 °F /  7.6 °C 20.3 °F /  -6.5 °C 30.35in /  1027.7hPa Calm     36% 0.00in /  0mm 0.0 W/m2
05:59 45.9 °F /  7.7 °C 20.5 °F /  -6.4 °C 30.35in /  1027.7hPa Calm     36% 0.00in /  0mm 0.0 W/m2
06:05 46.0 °F /  7.8 °C 20.5 °F /  -6.4 °C 30.35in /  1027.7hPa Calm     36% 0.00in /  0mm 0.0 W/m2
06:11 45.9 °F /  7.7 °C 20.5 °F /  -6.4 °C 30.36in /  1028hPa Calm     36% 0.00in /  0mm 0.0 W/m2
06:17 45.3 °F /  7.4 °C 19.9 °F /  -6.7 °C 30.36in /  1028hPa Calm     36% 0.00in /  0mm 0.0 W/m2
06:23 45.0 °F /  7.2 °C 20.3 °F /  -6.5 °C 30.36in /  1028hPa Calm     37% 0.00in /  0mm 0.0 W/m2
06:29 45.0 °F /  7.2 °C 20.3 °F /  -6.5 °C 30.36in /  1028hPa Calm     37% 0.00in /  0mm 7.0 W/m2
06:35 45.0 °F /  7.2 °C 20.3 °F /  -6.5 °C 30.36in /  1028hPa Calm     37% 0.00in /  0mm 9.0 W/m2
06:41 45.0 °F /  7.2 °C 20.8 °F /  -6.2 °C 30.36in /  1028hPa Calm     38% 0.00in /  0mm 12.0 W/m2
06:48 44.8 °F /  7.1 °C 20.7 °F /  -6.3 °C 30.36in /  1028hPa Calm     38% 0.00in /  0mm 14.0 W/m2
06:54 45.0 °F /  7.2 °C 20.3 °F /  -6.5 °C 30.36in /  1028hPa ENE 0.9mph /  1.4km/h 1.0mph /  1.6km/h 37% 0.00in /  0mm 16.0 W/m2
07:00 45.3 °F /  7.4 °C 20.7 °F /  -6.3 °C 30.36in /  1028hPa East 0.9mph /  1.4km/h 2.0mph /  3.2km/h 37% 0.00in /  0mm 18.0 W/m2
07:06 45.7 °F /  7.6 °C 20.3 °F /  -6.5 °C 30.37in /  1028.3hPa Calm   1.0mph /  1.6km/h 36% 0.00in /  0mm 19.0 W/m2
07:12 46.0 °F /  7.8 °C 20.5 °F /  -6.4 °C 30.37in /  1028.3hPa Calm   1.0mph /  1.6km/h 36% 0.00in /  0mm 21.0 W/m2
07:18 46.2 °F /  7.9 °C 20.7 °F /  -6.3 °C 30.37in /  1028.3hPa Calm   1.0mph /  1.6km/h 36% 0.00in /  0mm 23.0 W/m2
07:24 46.6 °F /  8.1 °C 21.0 °F /  -6.1 °C 30.37in /  1028.3hPa Calm   1.0mph /  1.6km/h 36% 0.00in /  0mm 25.0 W/m2
07:30 47.1 °F /  8.4 °C 21.6 °F /  -5.8 °C 30.38in /  1028.7hPa Calm   1.0mph /  1.6km/h 36% 0.00in /  0mm 25.0 W/m2
07:36 47.5 °F /  8.6 °C 21.9 °F /  -5.6 °C 30.38in /  1028.7hPa Calm   1.0mph /  1.6km/h 36% 0.00in /  0mm 26.0 W/m2
07:43 48.0 °F /  8.9 °C 22.3 °F /  -5.4 °C 30.38in /  1028.7hPa Calm   1.0mph /  1.6km/h 36% 0.00in /  0mm 28.0 W/m2
07:49 48.6 °F /  9.2 °C 22.8 °F /  -5.1 °C 30.38in /  1028.7hPa Calm     36% 0.00in /  0mm 28.0 W/m2
07:55 49.3 °F /  9.6 °C 22.8 °F /  -5.1 °C 30.38in /  1028.7hPa Calm   2.0mph /  3.2km/h 35% 0.00in /  0mm 30.0 W/m2
08:01 50.2 °F /  10.1 °C 22.8 °F /  -5.1 °C 30.38in /  1028.7hPa Calm     34% 0.00in /  0mm 30.0 W/m2
08:07 51.3 °F /  10.7 °C 23.2 °F /  -4.9 °C 30.38in /  1028.7hPa Calm     33% 0.00in /  0mm 32.0 W/m2
08:13 52.9 °F /  11.6 °C 22.3 °F /  -5.4 °C 30.38in /  1028.7hPa Calm     30% 0.00in /  0mm 33.0 W/m2
08:19 54.1 °F /  12.3 °C 21.7 °F /  -5.7 °C 30.38in /  1028.7hPa Calm     28% 0.00in /  0mm 35.0 W/m2
08:25 55.4 °F /  13 °C 21.9 °F /  -5.6 °C 30.38in /  1028.7hPa Calm     27% 0.00in /  0mm 163.0 W/m2
08:32 57.7 °F /  14.3 °C 21.2 °F /  -6 °C 30.39in /  1029hPa Calm     24% 0.00in /  0mm 424.0 W/m2
08:38 59.7 °F /  15.4 °C 21.9 °F /  -5.6 °C 30.38in /  1028.7hPa Calm     23% 0.00in /  0mm 441.0 W/m2
08:44 61.9 °F /  16.6 °C 21.6 °F /  -5.8 °C 30.38in /  1028.7hPa Calm     21% 0.00in /  0mm 461.0 W/m2
08:50 63.3 °F /  17.4 °C 22.6 °F /  -5.2 °C 30.38in /  1028.7hPa Calm     21% 0.00in /  0mm 483.0 W/m2
08:56 64.8 °F /  18.2 °C 22.8 °F /  -5.1 °C 30.39in /  1029hPa Calm   1.0mph /  1.6km/h 20% 0.00in /  0mm 501.0 W/m2
09:02 65.8 °F /  18.8 °C 22.5 °F /  -5.3 °C 30.38in /  1028.7hPa Calm   2.0mph /  3.2km/h 19% 0.00in /  0mm 520.0 W/m2
09:08 66.9 °F /  19.4 °C 22.1 °F /  -5.5 °C 30.39in /  1029hPa Calm     18% 0.00in /  0mm 536.0 W/m2
09:20 68.2 °F /  20.1 °C 23.0 °F /  -5 °C 30.39in /  1029hPa NNW 2.0mph /  3.2km/h 2.0mph /  3.2km/h 18% 0.00in /  0mm 570.0 W/m2
09:27 68.7 °F /  20.4 °C 22.1 °F /  -5.5 °C 30.38in /  1028.7hPa Calm   1.0mph /  1.6km/h 17% 0.00in /  0mm 585.0 W/m2
09:33 69.3 °F /  20.7 °C 22.6 °F /  -5.2 °C 30.38in /  1028.7hPa NNW 2.9mph /  4.7km/h 6.0mph /  9.7km/h 17% 0.00in /  0mm 601.0 W/m2
09:39 69.8 °F /  21 °C 23.0 °F /  -5 °C 30.38in /  1028.7hPa NE 0.9mph /  1.4km/h 4.0mph /  6.4km/h 17% 0.00in /  0mm 619.0 W/m2
09:45 70.2 °F /  21.2 °C 23.4 °F /  -4.8 °C 30.38in /  1028.7hPa NNW 2.9mph /  4.7km/h 10.0mph /  16.1km/h 17% 0.00in /  0mm 631.0 W/m2
09:51 70.3 °F /  21.3 °C 24.8 °F /  -4 °C 30.38in /  1028.7hPa Calm   3.0mph /  4.8km/h 18% 0.00in /  0mm 643.0 W/m2
09:57 70.5 °F /  21.4 °C 23.5 °F /  -4.7 °C 30.38in /  1028.7hPa WNW 0.9mph /  1.4km/h 3.0mph /  4.8km/h 17% 0.00in /  0mm 656.0 W/m2
10:03 70.5 °F /  21.4 °C 23.5 °F /  -4.7 °C 30.38in /  1028.7hPa NW 2.0mph /  3.2km/h 5.0mph /  8km/h 17% 0.00in /  0mm 663.0 W/m2
10:09 70.9 °F /  21.6 °C 23.9 °F /  -4.5 °C 30.38in /  1028.7hPa Calm   3.0mph /  4.8km/h 17% 0.00in /  0mm 677.0 W/m2
10:16 71.2 °F /  21.8 °C 22.8 °F /  -5.1 °C 30.38in /  1028.7hPa Calm   7.0mph /  11.3km/h 16% 0.00in /  0mm 691.0 W/m2
10:22 71.6 °F /  22 °C 24.4 °F /  -4.2 °C 30.38in /  1028.7hPa NW 2.9mph /  4.7km/h 4.0mph /  6.4km/h 17% 0.00in /  0mm 700.0 W/m2
10:28 72.1 °F /  22.3 °C 23.5 °F /  -4.7 °C 30.37in /  1028.3hPa Calm   4.0mph /  6.4km/h 16% 0.00in /  0mm 712.0 W/m2
10:34 72.5 °F /  22.5 °C 23.7 °F /  -4.6 °C 30.37in /  1028.3hPa North 0.9mph /  1.4km/h 6.0mph /  9.7km/h 16% 0.00in /  0mm 715.0 W/m2
10:40 72.7 °F /  22.6 °C 23.9 °F /  -4.5 °C 30.37in /  1028.3hPa NW 2.9mph /  4.7km/h 7.0mph /  11.3km/h 16% 0.00in /  0mm 719.0 W/m2
10:46 72.9 °F /  22.7 °C 24.1 °F /  -4.4 °C 30.37in /  1028.3hPa ENE 2.9mph /  4.7km/h 10.0mph /  16.1km/h 16% 0.00in /  0mm 733.0 W/m2
10:52 73.0 °F /  22.8 °C 24.3 °F /  -4.3 °C 30.36in /  1028hPa North 2.0mph /  3.2km/h 4.0mph /  6.4km/h 16% 0.00in /  0mm 740.0 W/m2
10:58 73.8 °F /  23.2 °C 24.8 °F /  -4 °C 30.36in /  1028hPa WNW 2.0mph /  3.2km/h 5.0mph /  8km/h 16% 0.00in /  0mm 744.0 W/m2
11:04 73.6 °F /  23.1 °C 24.6 °F /  -4.1 °C 30.36in /  1028hPa NW 0.9mph /  1.4km/h 4.0mph /  6.4km/h 16% 0.00in /  0mm 749.0 W/m2
11:11 73.8 °F /  23.2 °C 23.2 °F /  -4.9 °C 30.36in /  1028hPa NE 0.9mph /  1.4km/h 6.0mph /  9.7km/h 15% 0.00in /  0mm 754.0 W/m2
11:17 73.9 °F /  23.3 °C 23.4 °F /  -4.8 °C 30.36in /  1028hPa North 0.9mph /  1.4km/h 4.0mph /  6.4km/h 15% 0.00in /  0mm 761.0 W/m2
11:23 74.3 °F /  23.5 °C 23.7 °F /  -4.6 °C 30.36in /  1028hPa Calm   3.0mph /  4.8km/h 15% 0.00in /  0mm 765.0 W/m2
11:29 74.5 °F /  23.6 °C 23.7 °F /  -4.6 °C 30.35in /  1027.7hPa NNW 2.9mph /  4.7km/h 4.0mph /  6.4km/h 15% 0.00in /  0mm 765.0 W/m2
11:35 74.7 °F /  23.7 °C 23.9 °F /  -4.5 °C 30.35in /  1027.7hPa North 6.0mph /  9.7km/h 6.0mph /  9.7km/h 15% 0.00in /  0mm 770.0 W/m2
11:41 74.7 °F /  23.7 °C 23.9 °F /  -4.5 °C 30.34in /  1027.3hPa WNW 0.9mph /  1.4km/h 3.0mph /  4.8km/h 15% 0.00in /  0mm 772.0 W/m2
11:47 74.5 °F /  23.6 °C 22.1 °F /  -5.5 °C 30.34in /  1027.3hPa ENE 2.0mph /  3.2km/h 6.0mph /  9.7km/h 14% 0.00in /  0mm 772.0 W/m2
11:53 74.5 °F /  23.6 °C 22.1 °F /  -5.5 °C 30.33in /  1027hPa NNW 2.0mph /  3.2km/h 4.0mph /  6.4km/h 14% 0.00in /  0mm 770.0 W/m2
11:59 74.8 °F /  23.8 °C 22.5 °F /  -5.3 °C 30.33in /  1027hPa WSW 2.9mph /  4.7km/h 7.0mph /  11.3km/h 14% 0.00in /  0mm 772.0 W/m2
12:06 74.8 °F /  23.8 °C 22.5 °F /  -5.3 °C 30.33in /  1027hPa Calm   2.0mph /  3.2km/h 14% 0.00in /  0mm 763.0 W/m2
12:12 75.0 °F /  23.9 °C 20.8 °F /  -6.2 °C 30.33in /  1027hPa WNW 2.9mph /  4.7km/h 3.0mph /  4.8km/h 13% 0.00in /  0mm 766.0 W/m2
12:18 75.4 °F /  24.1 °C 21.2 °F /  -6 °C 30.32in /  1026.6hPa West 4.9mph /  7.9km/h 6.0mph /  9.7km/h 13% 0.00in /  0mm 775.0 W/m2
12:24 75.2 °F /  24 °C 21.0 °F /  -6.1 °C 30.32in /  1026.6hPa Calm   5.0mph /  8km/h 13% 0.00in /  0mm 768.0 W/m2
12:30 75.2 °F /  24 °C 19.0 °F /  -7.2 °C 30.31in /  1026.3hPa WNW 0.9mph /  1.4km/h 1.0mph /  1.6km/h 12% 0.00in /  0mm 766.0 W/m2
12:36 75.6 °F /  24.2 °C 19.4 °F /  -7 °C 30.31in /  1026.3hPa NNW 2.0mph /  3.2km/h 6.0mph /  9.7km/h 12% 0.00in /  0mm 763.0 W/m2
12:42 75.9 °F /  24.4 °C 19.6 °F /  -6.9 °C 30.31in /  1026.3hPa NW 4.9mph /  7.9km/h 10.0mph /  16.1km/h 12% 0.00in /  0mm 751.0 W/m2
12:48 75.9 °F /  24.4 °C 21.6 °F /  -5.8 °C 30.31in /  1026.3hPa Calm   8.0mph /  12.9km/h 13% 0.00in /  0mm 751.0 W/m2
12:54 76.1 °F /  24.5 °C 19.8 °F /  -6.8 °C 30.31in /  1026.3hPa Calm   4.0mph /  6.4km/h 12% 0.00in /  0mm 749.0 W/m2
13:00 75.9 °F /  24.4 °C 19.6 °F /  -6.9 °C 30.30in /  1026hPa WNW 2.0mph /  3.2km/h 6.0mph /  9.7km/h 12% 0.00in /  0mm 737.0 W/m2
13:06 76.3 °F /  24.6 °C 15.6 °F /  -9.1 °C 30.30in /  1026hPa Calm   1.0mph /  1.6km/h 10% 0.00in /  0mm 721.0 W/m2
13:12 75.9 °F /  24.4 °C 17.6 °F /  -8 °C 30.29in /  1025.6hPa Calm   1.0mph /  1.6km/h 11% 0.00in /  0mm 721.0 W/m2
13:19 75.9 °F /  24.4 °C 19.6 °F /  -6.9 °C 30.29in /  1025.6hPa North 4.0mph /  6.4km/h 4.0mph /  6.4km/h 12% 0.00in /  0mm 708.0 W/m2
13:25 75.7 °F /  24.3 °C 19.6 °F /  -6.9 °C 30.29in /  1025.6hPa Calm   6.0mph /  9.7km/h 12% 0.00in /  0mm 693.0 W/m2
13:31 75.9 °F /  24.4 °C 19.6 °F /  -6.9 °C 30.29in /  1025.6hPa NNW 2.9mph /  4.7km/h 7.0mph /  11.3km/h 12% 0.00in /  0mm 687.0 W/m2
13:37 76.1 °F /  24.5 °C 19.8 °F /  -6.8 °C 30.29in /  1025.6hPa Calm   5.0mph /  8km/h 12% 0.00in /  0mm 670.0 W/m2
13:43 75.7 °F /  24.3 °C 19.6 °F /  -6.9 °C 30.28in /  1025.3hPa NNW 6.9mph /  11.1km/h 7.0mph /  11.3km/h 12% 0.00in /  0mm 661.0 W/m2
13:49 75.7 °F /  24.3 °C 17.4 °F /  -8.1 °C 30.28in /  1025.3hPa ESE 0.9mph /  1.4km/h 6.0mph /  9.7km/h 11% 0.00in /  0mm 645.0 W/m2
13:55 76.1 °F /  24.5 °C 19.8 °F /  -6.8 °C 30.28in /  1025.3hPa NNE 4.0mph /  6.4km/h 7.0mph /  11.3km/h 12% 0.00in /  0mm 635.0 W/m2
14:01 76.1 °F /  24.5 °C 17.8 °F /  -7.9 °C 30.28in /  1025.3hPa NNE 4.0mph /  6.4km/h 9.0mph /  14.5km/h 11% 0.00in /  0mm 619.0 W/m2
14:08 75.9 °F /  24.4 °C 19.6 °F /  -6.9 °C 30.27in /  1024.9hPa Calm   3.0mph /  4.8km/h 12% 0.00in /  0mm 605.0 W/m2
14:14 76.3 °F /  24.6 °C 18.0 °F /  -7.8 °C 30.27in /  1024.9hPa Calm   1.0mph /  1.6km/h 11% 0.00in /  0mm 589.0 W/m2
14:20 76.5 °F /  24.7 °C 18.0 °F /  -7.8 °C 30.26in /  1024.6hPa Calm   3.0mph /  4.8km/h 11% 0.00in /  0mm 571.0 W/m2
14:26 76.8 °F /  24.9 °C 16.2 °F /  -8.8 °C 30.26in /  1024.6hPa NW 2.9mph /  4.7km/h 5.0mph /  8km/h 10% 0.00in /  0mm 564.0 W/m2
14:32 76.6 °F /  24.8 °C 16.0 °F /  -8.9 °C 30.26in /  1024.6hPa Calm   5.0mph /  8km/h 10% 0.00in /  0mm 548.0 W/m2
14:38 76.8 °F /  24.9 °C 16.2 °F /  -8.8 °C 30.26in /  1024.6hPa NW 0.9mph /  1.4km/h 7.0mph /  11.3km/h 10% 0.00in /  0mm 534.0 W/m2
14:44 76.8 °F /  24.9 °C 16.2 °F /  -8.8 °C 30.26in /  1024.6hPa WSW 2.9mph /  4.7km/h 5.0mph /  8km/h 10% 0.00in /  0mm 512.0 W/m2
14:51 77.0 °F /  25 °C 18.5 °F /  -7.5 °C 30.26in /  1024.6hPa WSW 0.9mph /  1.4km/h 4.0mph /  6.4km/h 11% 0.00in /  0mm 492.0 W/m2
14:57 76.8 °F /  24.9 °C 16.2 °F /  -8.8 °C 30.26in /  1024.6hPa NNW 2.9mph /  4.7km/h 5.0mph /  8km/h 10% 0.00in /  0mm 469.0 W/m2
15:03 76.8 °F /  24.9 °C 16.2 °F /  -8.8 °C 30.25in /  1024.3hPa NNW 2.0mph /  3.2km/h 7.0mph /  11.3km/h 10% 0.00in /  0mm 454.0 W/m2
15:09 76.5 °F /  24.7 °C 18.0 °F /  -7.8 °C 30.25in /  1024.3hPa Calm   1.0mph /  1.6km/h 11% 0.00in /  0mm 436.0 W/m2
15:15 76.5 °F /  24.7 °C 15.8 °F /  -9 °C 30.25in /  1024.3hPa NW 2.0mph /  3.2km/h 4.0mph /  6.4km/h 10% 0.00in /  0mm 417.0 W/m2
15:21 76.5 °F /  24.7 °C 18.0 °F /  -7.8 °C 30.25in /  1024.3hPa NNW 2.9mph /  4.7km/h 5.0mph /  8km/h 11% 0.00in /  0mm 397.0 W/m2
15:27 76.3 °F /  24.6 °C 15.6 °F /  -9.1 °C 30.25in /  1024.3hPa West 2.0mph /  3.2km/h 7.0mph /  11.3km/h 10% 0.00in /  0mm 380.0 W/m2
15:33 76.5 °F /  24.7 °C 15.8 °F /  -9 °C 30.25in /  1024.3hPa WNW 0.9mph /  1.4km/h 3.0mph /  4.8km/h 10% 0.00in /  0mm 360.0 W/m2
15:39 76.1 °F /  24.5 °C 15.6 °F /  -9.1 °C 30.25in /  1024.3hPa WSW 4.0mph /  6.4km/h 4.0mph /  6.4km/h 10% 0.00in /  0mm 343.0 W/m2
15:46 75.7 °F /  24.3 °C 17.4 °F /  -8.1 °C 30.25in /  1024.3hPa Calm   1.0mph /  1.6km/h 11% 0.00in /  0mm 320.0 W/m2
15:52 75.6 °F /  24.2 °C 17.4 °F /  -8.1 °C 30.25in /  1024.3hPa West 0.9mph /  1.4km/h 4.0mph /  6.4km/h 11% 0.00in /  0mm 290.0 W/m2
15:58 75.4 °F /  24.1 °C 15.1 °F /  -9.4 °C 30.25in /  1024.3hPa North 0.9mph /  1.4km/h 4.0mph /  6.4km/h 10% 0.00in /  0mm 46.0 W/m2
16:04 75.0 °F /  23.9 °C 14.7 °F /  -9.6 °C 30.25in /  1024.3hPa Calm   5.0mph /  8km/h 10% 0.00in /  0mm 42.0 W/m2
16:10 74.7 °F /  23.7 °C 14.5 °F /  -9.7 °C 30.25in /  1024.3hPa Calm   1.0mph /  1.6km/h 10% 0.00in /  0mm 40.0 W/m2
16:16 74.1 °F /  23.4 °C 16.2 °F /  -8.8 °C 30.25in /  1024.3hPa NW 0.9mph /  1.4km/h 3.0mph /  4.8km/h 11% 0.00in /  0mm 37.0 W/m2
16:23 73.9 °F /  23.3 °C 16.2 °F /  -8.8 °C 30.25in /  1024.3hPa Calm     11% 0.00in /  0mm 49.0 W/m2
16:29 73.6 °F /  23.1 °C 15.8 °F /  -9 °C 30.25in /  1024.3hPa NNE 2.0mph /  3.2km/h 2.0mph /  3.2km/h 11% 0.00in /  0mm 49.0 W/m2
16:35 73.2 °F /  22.9 °C 15.6 °F /  -9.1 °C 30.25in /  1024.3hPa NE 2.0mph /  3.2km/h 4.0mph /  6.4km/h 11% 0.00in /  0mm 28.0 W/m2
16:41 72.9 °F /  22.7 °C 17.2 °F /  -8.2 °C 30.25in /  1024.3hPa Calm   1.0mph /  1.6km/h 12% 0.00in /  0mm 40.0 W/m2
16:47 72.5 °F /  22.5 °C 17.1 °F /  -8.3 °C 30.25in /  1024.3hPa Calm   5.0mph /  8km/h 12% 0.00in /  0mm 53.0 W/m2
16:53 72.1 °F /  22.3 °C 16.7 °F /  -8.5 °C 30.25in /  1024.3hPa NNW 0.9mph /  1.4km/h 3.0mph /  4.8km/h 12% 0.00in /  0mm 26.0 W/m2
17:00 71.8 °F /  22.1 °C 16.5 °F /  -8.6 °C 30.25in /  1024.3hPa Calm   1.0mph /  1.6km/h 12% 0.00in /  0mm 33.0 W/m2
17:06 71.4 °F /  21.9 °C 16.2 °F /  -8.8 °C 30.26in /  1024.6hPa NW 0.9mph /  1.4km/h 4.0mph /  6.4km/h 12% 0.00in /  0mm 19.0 W/m2
17:12 71.1 °F /  21.7 °C 15.8 °F /  -9 °C 30.26in /  1024.6hPa NW 2.0mph /  3.2km/h 4.0mph /  6.4km/h 12% 0.00in /  0mm 14.0 W/m2
17:18 70.9 °F /  21.6 °C 15.8 °F /  -9 °C 30.26in /  1024.6hPa NW 0.9mph /  1.4km/h 4.0mph /  6.4km/h 12% 0.00in /  0mm 12.0 W/m2
17:24 70.3 °F /  21.3 °C 17.2 °F /  -8.2 °C 30.26in /  1024.6hPa WNW 2.0mph /  3.2km/h 2.0mph /  3.2km/h 13% 0.00in /  0mm 9.0 W/m2
17:30 70.0 °F /  21.1 °C 16.9 °F /  -8.4 °C 30.26in /  1024.6hPa North 4.0mph /  6.4km/h 4.0mph /  6.4km/h 13% 0.00in /  0mm 5.0 W/m2
17:36 69.6 °F /  20.9 °C 18.3 °F /  -7.6 °C 30.27in /  1024.9hPa North 2.0mph /  3.2km/h 2.0mph /  3.2km/h 14% 0.00in /  0mm 0.0 W/m2
17:42 69.3 °F /  20.7 °C 18.0 °F /  -7.8 °C 30.27in /  1024.9hPa Calm   2.0mph /  3.2km/h 14% 0.00in /  0mm 0.0 W/m2
17:48 68.9 °F /  20.5 °C 17.8 °F /  -7.9 °C 30.27in /  1024.9hPa Calm     14% 0.00in /  0mm 0.0 W/m2
17:54 68.4 °F /  20.2 °C 18.9 °F /  -7.3 °C 30.27in /  1024.9hPa Calm     15% 0.00in /  0mm 0.0 W/m2
18:00 67.6 °F /  19.8 °C 18.3 °F /  -7.6 °C 30.27in /  1024.9hPa Calm     15% 0.00in /  0mm 0.0 W/m2
18:06 66.9 °F /  19.4 °C 19.2 °F /  -7.1 °C 30.27in /  1024.9hPa Calm   1.0mph /  1.6km/h 16% 0.00in /  0mm 0.0 W/m2
18:12 66.4 °F /  19.1 °C 18.9 °F /  -7.3 °C 30.26in /  1024.6hPa Calm     16% 0.00in /  0mm 0.0 W/m2
18:18 65.8 °F /  18.8 °C 18.3 °F /  -7.6 °C 30.27in /  1024.9hPa Calm   1.0mph /  1.6km/h 16% 0.00in /  0mm 0.0 W/m2
18:24 65.5 °F /  18.6 °C 18.1 °F /  -7.7 °C 30.27in /  1024.9hPa Calm   2.0mph /  3.2km/h 16% 0.00in /  0mm 0.0 W/m2
18:30 65.1 °F /  18.4 °C 19.2 °F /  -7.1 °C 30.27in /  1024.9hPa Calm     17% 0.00in /  0mm 0.0 W/m2
18:36 64.8 °F /  18.2 °C 18.9 °F /  -7.3 °C 30.27in /  1024.9hPa Calm   1.0mph /  1.6km/h 17% 0.00in /  0mm 0.0 W/m2
18:42 64.0 °F /  17.8 °C 18.3 °F /  -7.6 °C 30.27in /  1024.9hPa Calm   1.0mph /  1.6km/h 17% 0.00in /  0mm 0.0 W/m2
18:48 63.3 °F /  17.4 °C 17.8 °F /  -7.9 °C 30.28in /  1025.3hPa Calm     17% 0.00in /  0mm 0.0 W/m2
18:54 62.8 °F /  17.1 °C 18.7 °F /  -7.4 °C 30.28in /  1025.3hPa Calm     18% 0.00in /  0mm 0.0 W/m2
19:00 62.2 °F /  16.8 °C 19.4 °F /  -7 °C 30.28in /  1025.3hPa Calm     19% 0.00in /  0mm 0.0 W/m2
19:06 61.7 °F /  16.5 °C 19.0 °F /  -7.2 °C 30.28in /  1025.3hPa Calm     19% 0.00in /  0mm 0.0 W/m2
19:12 61.2 °F /  16.2 °C 18.5 °F /  -7.5 °C 30.29in /  1025.6hPa Calm     19% 0.00in /  0mm 0.0 W/m2
19:18 60.6 °F /  15.9 °C 19.4 °F /  -7 °C 30.29in /  1025.6hPa Calm     20% 0.00in /  0mm 0.0 W/m2
19:24 60.1 °F /  15.6 °C 18.9 °F /  -7.3 °C 30.29in /  1025.6hPa Calm     20% 0.00in /  0mm 0.0 W/m2
19:30 59.4 °F /  15.2 °C 18.3 °F /  -7.6 °C 30.29in /  1025.6hPa Calm     20% 0.00in /  0mm 0.0 W/m2
19:36 58.6 °F /  14.8 °C 18.9 °F /  -7.3 °C 30.30in /  1026hPa Calm     21% 0.00in /  0mm 0.0 W/m2
19:42 57.9 °F /  14.4 °C 19.2 °F /  -7.1 °C 30.30in /  1026hPa Calm     22% 0.00in /  0mm 0.0 W/m2
19:48 57.6 °F /  14.2 °C 19.0 °F /  -7.2 °C 30.30in /  1026hPa Calm     22% 0.00in /  0mm 0.0 W/m2
19:54 56.8 °F /  13.8 °C 18.3 °F /  -7.6 °C 30.30in /  1026hPa Calm     22% 0.00in /  0mm 0.0 W/m2
20:00 56.1 °F /  13.4 °C 17.8 °F /  -7.9 °C 30.30in /  1026hPa Calm   1.0mph /  1.6km/h 22% 0.00in /  0mm 0.0 W/m2
20:06 55.6 °F /  13.1 °C 18.3 °F /  -7.6 °C 30.30in /  1026hPa Calm     23% 0.00in /  0mm 0.0 W/m2
20:12 55.2 °F /  12.9 °C 18.1 °F /  -7.7 °C 30.31in /  1026.3hPa Calm     23% 0.00in /  0mm 0.0 W/m2
20:18 54.9 °F /  12.7 °C 17.8 °F /  -7.9 °C 30.31in /  1026.3hPa Calm     23% 0.00in /  0mm 0.0 W/m2
20:24 54.3 °F /  12.4 °C 17.2 °F /  -8.2 °C 30.31in /  1026.3hPa Calm     23% 0.00in /  0mm 0.0 W/m2
20:30 54.0 °F /  12.2 °C 18.0 °F /  -7.8 °C 30.31in /  1026.3hPa Calm     24% 0.00in /  0mm 0.0 W/m2
20:36 53.4 °F /  11.9 °C 18.5 °F /  -7.5 °C 30.32in /  1026.6hPa Calm     25% 0.00in /  0mm 0.0 W/m2
20:42 53.2 °F /  11.8 °C 18.3 °F /  -7.6 °C 30.32in /  1026.6hPa Calm     25% 0.00in /  0mm 0.0 W/m2
20:48 53.1 °F /  11.7 °C 19.0 °F /  -7.2 °C 30.32in /  1026.6hPa Calm     26% 0.00in /  0mm 0.0 W/m2
20:54 52.9 °F /  11.6 °C 18.0 °F /  -7.8 °C 30.32in /  1026.6hPa Calm     25% 0.00in /  0mm 0.0 W/m2
21:00 53.1 °F /  11.7 °C 18.1 °F /  -7.7 °C 30.32in /  1026.6hPa Calm     25% 0.00in /  0mm 0.0 W/m2
21:06 53.1 °F /  11.7 °C 18.1 °F /  -7.7 °C 30.31in /  1026.3hPa Calm     25% 0.00in /  0mm 0.0 W/m2
21:12 53.1 °F /  11.7 °C 18.1 °F /  -7.7 °C 30.31in /  1026.3hPa Calm     25% 0.00in /  0mm 0.0 W/m2
21:18 52.7 °F /  11.5 °C 17.8 °F /  -7.9 °C 30.31in /  1026.3hPa Calm     25% 0.00in /  0mm 0.0 W/m2
21:24 52.5 °F /  11.4 °C 18.7 °F /  -7.4 °C 30.31in /  1026.3hPa Calm     26% 0.00in /  0mm 0.0 W/m2
21:30 52.2 °F /  11.2 °C 18.3 °F /  -7.6 °C 30.31in /  1026.3hPa Calm     26% 0.00in /  0mm 0.0 W/m2
21:42 52.0 °F /  11.1 °C 18.1 °F /  -7.7 °C 30.32in /  1026.6hPa Calm     26% 0.00in /  0mm 0.0 W/m2
21:48 52.0 °F /  11.1 °C 17.2 °F /  -8.2 °C 30.31in /  1026.3hPa Calm     25% 0.00in /  0mm 0.0 W/m2
21:54 52.2 °F /  11.2 °C 17.4 °F /  -8.1 °C 30.31in /  1026.3hPa Calm     25% 0.00in /  0mm 0.0 W/m2
22:00 52.3 °F /  11.3 °C 17.6 °F /  -8 °C 30.31in /  1026.3hPa East 0.9mph /  1.4km/h 1.0mph /  1.6km/h 25% 0.00in /  0mm 0.0 W/m2
22:06 52.3 °F /  11.3 °C 17.6 °F /  -8 °C 30.31in /  1026.3hPa Calm   1.0mph /  1.6km/h 25% 0.00in /  0mm 0.0 W/m2
22:12 52.3 °F /  11.3 °C 17.6 °F /  -8 °C 30.31in /  1026.3hPa ESE 0.9mph /  1.4km/h 4.0mph /  6.4km/h 25% 0.00in /  0mm 0.0 W/m2
22:18 52.3 °F /  11.3 °C 17.6 °F /  -8 °C 30.31in /  1026.3hPa Calm     25% 0.00in /  0mm 0.0 W/m2
22:24 52.3 °F /  11.3 °C 17.6 °F /  -8 °C 30.31in /  1026.3hPa Calm     25% 0.00in /  0mm 0.0 W/m2
22:30 52.3 °F /  11.3 °C 16.5 °F /  -8.6 °C 30.31in /  1026.3hPa Calm   2.0mph /  3.2km/h 24% 0.00in /  0mm 0.0 W/m2
22:36 52.3 °F /  11.3 °C 17.6 °F /  -8 °C 30.31in /  1026.3hPa Calm   3.0mph /  4.8km/h 25% 0.00in /  0mm 0.0 W/m2
22:42 52.3 °F /  11.3 °C 17.6 °F /  -8 °C 30.31in /  1026.3hPa Calm     25% 0.00in /  0mm 0.0 W/m2
22:48 52.2 °F /  11.2 °C 17.4 °F /  -8.1 °C 30.32in /  1026.6hPa Calm   1.0mph /  1.6km/h 25% 0.00in /  0mm 0.0 W/m2
22:54 52.0 °F /  11.1 °C 17.2 °F /  -8.2 °C 30.32in /  1026.6hPa East 0.9mph /  1.4km/h 3.0mph /  4.8km/h 25% 0.00in /  0mm 0.0 W/m2
23:00 52.0 °F /  11.1 °C 17.2 °F /  -8.2 °C 30.31in /  1026.3hPa Calm   1.0mph /  1.6km/h 25% 0.00in /  0mm 0.0 W/m2
23:12 51.4 °F /  10.8 °C 16.7 °F /  -8.5 °C 30.32in /  1026.6hPa Calm   3.0mph /  4.8km/h 25% 0.00in /  0mm 0.0 W/m2
23:18 51.1 °F /  10.6 °C 16.5 °F /  -8.6 °C 30.31in /  1026.3hPa Calm   1.0mph /  1.6km/h 25% 0.00in /  0mm 0.0 W/m2
23:24 51.1 °F /  10.6 °C 16.5 °F /  -8.6 °C 30.32in /  1026.6hPa Calm   1.0mph /  1.6km/h 25% 0.00in /  0mm 0.0 W/m2
23:31 50.9 °F /  10.5 °C 17.2 °F /  -8.2 °C 30.31in /  1026.3hPa ENE 0.9mph /  1.4km/h 3.0mph /  4.8km/h 26% 0.00in /  0mm 0.0 W/m2
23:37 50.9 °F /  10.5 °C 17.2 °F /  -8.2 °C 30.31in /  1026.3hPa Calm   1.0mph /  1.6km/h 26% 0.00in /  0mm 0.0 W/m2
23:43 50.7 °F /  10.4 °C 17.1 °F /  -8.3 °C 30.32in /  1026.6hPa Calm   2.0mph /  3.2km/h 26% 0.00in /  0mm 0.0 W/m2
23:49 50.7 °F /  10.4 °C 17.1 °F /  -8.3 °C 30.31in /  1026.3hPa Calm   1.0mph /  1.6km/h 26% 0.00in /  0mm 0.0 W/m2
23:55 50.5 °F /  10.3 °C 16.9 °F /  -8.4 °C 30.31in /  1026.3hPa Calm     26% 0.00in /  0mm 0.0 W/m2
Olympia, Windhoek, Namibia
Compliments of Weather Underground - 3 mb